createdAt,value
2022-10-22T00:00:47.316Z,976.69
2022-10-22T00:01:47.291Z,976.62
2022-10-22T00:02:47.300Z,976.72
2022-10-22T00:03:47.270Z,976.68
2022-10-22T00:04:47.269Z,976.67
2022-10-22T00:05:47.262Z,976.74
2022-10-22T00:06:47.240Z,976.69
2022-10-22T00:07:47.234Z,976.71
2022-10-22T00:08:47.266Z,976.69
2022-10-22T00:09:47.210Z,976.72
2022-10-22T00:10:47.210Z,976.71
2022-10-22T00:11:47.184Z,976.69
2022-10-22T00:12:47.179Z,976.69
2022-10-22T00:14:48.161Z,976.74
2022-10-22T00:15:47.163Z,976.75
2022-10-22T00:16:47.141Z,976.78
2022-10-22T00:17:47.137Z,976.77
2022-10-22T00:18:47.122Z,976.74
2022-10-22T00:19:47.107Z,976.72
2022-10-22T00:20:47.114Z,976.68
2022-10-22T00:21:47.090Z,976.77
2022-10-22T00:22:47.126Z,976.83
2022-10-22T00:23:47.075Z,976.80
2022-10-22T00:24:47.069Z,976.83
2022-10-22T00:25:47.065Z,976.91
2022-10-22T00:26:47.040Z,976.90
2022-10-22T00:27:47.029Z,976.97
2022-10-22T00:28:47.024Z,977.02
2022-10-22T00:29:47.008Z,976.98
2022-10-22T00:30:47.012Z,976.92
2022-10-22T00:31:47.014Z,976.89
2022-10-22T00:32:46.986Z,976.94
2022-10-22T00:33:46.987Z,976.92
2022-10-22T00:34:46.966Z,976.99
2022-10-22T00:35:46.970Z,976.99
2022-10-22T00:36:46.937Z,976.96
2022-10-22T00:37:46.930Z,976.94
2022-10-22T00:38:46.920Z,976.92
2022-10-22T00:39:46.907Z,976.95
2022-10-22T00:40:46.903Z,977.00
2022-10-22T00:41:46.885Z,976.97
2022-10-22T00:42:46.875Z,977.02
2022-10-22T00:43:46.873Z,977.08
2022-10-22T00:44:46.853Z,977.12
2022-10-22T00:45:46.854Z,977.14
2022-10-22T00:46:46.832Z,977.16
2022-10-22T00:47:46.822Z,977.14
2022-10-22T00:48:46.811Z,977.14
2022-10-22T00:49:46.815Z,977.13
2022-10-22T00:50:46.806Z,977.15
2022-10-22T00:51:46.787Z,977.18
2022-10-22T00:52:46.779Z,977.19
2022-10-22T00:53:46.765Z,977.21
2022-10-22T00:54:46.757Z,977.20
2022-10-22T00:55:46.756Z,977.20
2022-10-22T00:56:46.739Z,977.24
2022-10-22T00:57:46.723Z,977.11
2022-10-22T00:58:46.715Z,977.24
2022-10-22T00:59:46.706Z,977.18
2022-10-22T01:00:46.785Z,977.14
2022-10-22T01:01:46.691Z,977.12
2022-10-22T01:02:46.674Z,977.11
2022-10-22T01:03:46.666Z,977.10
2022-10-22T01:04:46.651Z,977.08
2022-10-22T01:05:46.654Z,977.06
2022-10-22T01:06:46.631Z,977.07
2022-10-22T01:07:46.621Z,977.06
2022-10-22T01:08:46.652Z,977.04
2022-10-22T01:09:46.604Z,976.98
2022-10-22T01:10:46.601Z,976.95
2022-10-22T01:11:46.583Z,976.99
2022-10-22T01:12:46.575Z,976.96
2022-10-22T01:13:46.567Z,976.97
2022-10-22T01:14:46.557Z,976.94
2022-10-22T01:15:46.555Z,976.84
2022-10-22T01:16:46.534Z,976.90
2022-10-22T01:17:46.521Z,976.84
2022-10-22T01:18:46.516Z,976.84
2022-10-22T01:19:46.509Z,976.91
2022-10-22T01:20:46.507Z,976.82
2022-10-22T01:21:46.485Z,976.83
2022-10-22T01:22:46.475Z,976.78
2022-10-22T01:23:46.474Z,976.81
2022-10-22T01:24:46.454Z,976.83
2022-10-22T01:25:46.450Z,976.82
2022-10-22T01:26:46.433Z,976.76
2022-10-22T01:27:46.422Z,976.83
2022-10-22T01:28:46.414Z,976.81
2022-10-22T01:29:46.406Z,976.76
2022-10-22T01:30:46.398Z,976.77
2022-10-22T01:31:46.383Z,976.83
2022-10-22T01:32:46.368Z,976.75
2022-10-22T01:33:46.358Z,976.79
2022-10-22T01:34:46.346Z,976.78
2022-10-22T01:35:46.360Z,976.72
2022-10-22T01:36:46.324Z,976.73
2022-10-22T01:37:46.318Z,976.75
2022-10-22T01:38:46.307Z,976.72
2022-10-22T01:39:46.291Z,976.75
2022-10-22T01:40:46.294Z,976.80
2022-10-22T01:41:46.283Z,976.79
2022-10-22T01:42:46.266Z,976.81
2022-10-22T01:43:46.262Z,976.77
2022-10-22T01:44:46.248Z,976.83
2022-10-22T01:45:46.250Z,976.79
2022-10-22T01:46:46.223Z,976.79
2022-10-22T01:47:46.223Z,976.81
2022-10-22T01:48:46.238Z,976.84
2022-10-22T01:49:46.194Z,976.84
2022-10-22T01:50:46.205Z,976.80
2022-10-22T01:51:46.175Z,976.78
2022-10-22T01:52:46.164Z,976.79
2022-10-22T01:53:46.165Z,976.82
2022-10-22T01:54:46.144Z,976.85
2022-10-22T01:55:46.137Z,976.79
2022-10-22T01:56:46.136Z,976.76
2022-10-22T01:57:46.115Z,976.75
2022-10-22T01:58:46.103Z,976.74
2022-10-22T01:59:46.093Z,976.73
2022-10-22T02:00:46.109Z,976.69
2022-10-22T02:01:46.080Z,976.70
2022-10-22T02:03:46.079Z,976.63
2022-10-22T02:04:46.037Z,976.69
2022-10-22T02:05:46.033Z,976.64
2022-10-22T02:06:46.033Z,976.66
2022-10-22T02:07:46.011Z,976.61
2022-10-22T02:08:46.037Z,976.63
2022-10-22T02:09:46.014Z,976.63
2022-10-22T02:10:45.982Z,976.61
2022-10-22T02:11:45.987Z,976.62
2022-10-22T02:12:45.962Z,976.66
2022-10-22T02:13:45.962Z,976.65
2022-10-22T02:14:45.941Z,976.69
2022-10-22T02:15:45.931Z,976.68
2022-10-22T02:16:45.928Z,976.65
2022-10-22T02:17:45.906Z,976.70
2022-10-22T02:18:45.896Z,976.73
2022-10-22T02:19:45.889Z,976.74
2022-10-22T02:20:45.876Z,976.75
2022-10-22T02:21:45.875Z,976.71
2022-10-22T02:22:45.859Z,976.76
2022-10-22T02:23:45.843Z,976.64
2022-10-22T02:24:45.837Z,976.68
2022-10-22T02:25:45.827Z,976.72
2022-10-22T02:26:45.828Z,976.78
2022-10-22T02:27:45.806Z,976.81
2022-10-22T02:28:45.797Z,976.78
2022-10-22T02:29:45.787Z,976.82
2022-10-22T02:30:45.789Z,976.79
2022-10-22T02:31:45.767Z,976.79
2022-10-22T02:32:45.753Z,976.81
2022-10-22T02:33:45.756Z,976.79
2022-10-22T02:34:45.737Z,976.72
2022-10-22T02:35:45.735Z,976.80
2022-10-22T02:36:49.605Z,976.76
2022-10-22T02:37:45.710Z,976.82
2022-10-22T02:38:45.702Z,976.83
2022-10-22T02:39:45.694Z,976.82
2022-10-22T02:40:45.677Z,976.92
2022-10-22T02:41:45.673Z,976.81
2022-10-22T02:42:45.659Z,976.82
2022-10-22T02:43:45.652Z,976.80
2022-10-22T02:44:45.641Z,976.80
2022-10-22T02:45:45.629Z,976.77
2022-10-22T02:46:45.627Z,976.77
2022-10-22T02:47:45.609Z,976.79
2022-10-22T02:48:45.596Z,976.78
2022-10-22T02:49:45.586Z,976.81
2022-10-22T02:50:45.580Z,976.81
2022-10-22T02:51:45.579Z,976.84
2022-10-22T02:52:45.562Z,976.81
2022-10-22T02:53:45.556Z,976.83
2022-10-22T02:54:45.538Z,976.82
2022-10-22T02:55:45.536Z,976.85
2022-10-22T02:56:45.530Z,976.81
2022-10-22T02:57:45.515Z,976.80
2022-10-22T02:58:45.502Z,976.87
2022-10-22T02:59:45.488Z,976.83
2022-10-22T03:00:45.530Z,976.90
2022-10-22T03:01:45.482Z,976.90
2022-10-22T03:02:45.462Z,976.94
2022-10-22T03:03:45.450Z,976.95
2022-10-22T03:04:45.440Z,976.99
2022-10-22T03:05:45.429Z,976.95
2022-10-22T03:06:45.426Z,976.98
2022-10-22T03:07:45.409Z,977.03
2022-10-22T03:08:45.465Z,977.05
2022-10-22T03:09:45.385Z,977.09
2022-10-22T03:10:45.374Z,977.15
2022-10-22T03:11:45.367Z,977.09
2022-10-22T03:12:46.357Z,977.13
2022-10-22T03:13:45.348Z,977.21
2022-10-22T03:14:45.337Z,977.17
2022-10-22T03:15:45.329Z,977.19
2022-10-22T03:16:45.329Z,977.15
2022-10-22T03:17:45.308Z,977.21
2022-10-22T03:18:45.298Z,977.22
2022-10-22T03:19:45.286Z,977.31
2022-10-22T03:20:45.274Z,977.25
2022-10-22T03:21:45.278Z,977.25
2022-10-22T03:22:45.254Z,977.35
2022-10-22T03:23:45.243Z,977.36
2022-10-22T03:24:45.237Z,977.32
2022-10-22T03:25:45.227Z,977.36
2022-10-22T03:26:45.229Z,977.36
2022-10-22T03:27:45.202Z,977.27
2022-10-22T03:28:45.197Z,977.31
2022-10-22T03:29:45.182Z,977.28
2022-10-22T03:30:45.170Z,977.28
2022-10-22T03:31:45.177Z,977.36
2022-10-22T03:32:45.151Z,977.37
2022-10-22T03:33:45.150Z,977.42
2022-10-22T03:34:45.136Z,977.38
2022-10-22T03:35:45.128Z,977.43
2022-10-22T03:36:45.126Z,977.38
2022-10-22T03:37:45.106Z,977.32
2022-10-22T03:38:45.095Z,977.38
2022-10-22T03:39:45.086Z,977.30
2022-10-22T03:40:45.073Z,977.32
2022-10-22T03:41:45.074Z,977.40
2022-10-22T03:42:45.055Z,977.36
2022-10-22T03:43:45.044Z,977.36
2022-10-22T03:44:45.035Z,977.40
2022-10-22T03:45:45.023Z,977.40
2022-10-22T03:46:45.028Z,977.42
2022-10-22T03:47:45.006Z,977.46
2022-10-22T03:48:44.988Z,977.44
2022-10-22T03:49:44.979Z,977.49
2022-10-22T03:50:44.970Z,977.55
2022-10-22T03:51:44.968Z,977.45
2022-10-22T03:52:44.951Z,977.56
2022-10-22T03:53:44.944Z,977.53
2022-10-22T03:54:44.935Z,977.58
2022-10-22T03:55:44.920Z,977.62
2022-10-22T03:56:44.920Z,977.62
2022-10-22T03:57:44.900Z,977.65
2022-10-22T03:58:44.889Z,977.62
2022-10-22T03:59:44.869Z,977.62
2022-10-22T04:00:45.894Z,977.69
2022-10-22T04:01:44.865Z,977.71
2022-10-22T04:02:44.849Z,977.60
2022-10-22T04:03:44.832Z,977.62
2022-10-22T04:04:44.828Z,977.63
2022-10-22T04:05:44.812Z,977.67
2022-10-22T04:06:44.812Z,977.64
2022-10-22T04:07:44.788Z,977.73
2022-10-22T04:08:44.802Z,977.75
2022-10-22T04:09:44.772Z,977.77
2022-10-22T04:10:44.758Z,977.77
2022-10-22T04:11:44.760Z,977.76
2022-10-22T04:12:44.740Z,977.80
2022-10-22T04:13:44.725Z,977.81
2022-10-22T04:14:44.713Z,977.80
2022-10-22T04:16:44.710Z,977.73
2022-10-22T04:17:44.686Z,977.82
2022-10-22T04:18:44.674Z,977.79
2022-10-22T04:19:44.665Z,977.78
2022-10-22T04:20:44.655Z,977.79
2022-10-22T04:21:44.664Z,977.74
2022-10-22T04:22:44.637Z,977.73
2022-10-22T04:23:44.622Z,977.78
2022-10-22T04:24:44.664Z,977.73
2022-10-22T04:25:44.608Z,977.74
2022-10-22T04:26:44.602Z,977.79
2022-10-22T04:27:44.595Z,977.74
2022-10-22T04:28:44.572Z,977.83
2022-10-22T04:29:44.566Z,977.85
2022-10-22T04:30:44.553Z,977.78
2022-10-22T04:31:44.603Z,977.84
2022-10-22T04:32:44.531Z,977.87
2022-10-22T04:33:44.521Z,977.83
2022-10-22T04:34:44.517Z,977.80
2022-10-22T04:35:44.503Z,977.74
2022-10-22T04:36:44.503Z,977.79
2022-10-22T04:37:44.482Z,977.75
2022-10-22T04:38:44.474Z,977.88
2022-10-22T04:39:44.463Z,977.77
2022-10-22T04:40:44.454Z,977.77
2022-10-22T04:41:44.456Z,977.80
2022-10-22T04:42:44.436Z,977.73
2022-10-22T04:43:44.424Z,977.73
2022-10-22T04:44:44.412Z,977.72
2022-10-22T04:45:44.471Z,977.66
2022-10-22T04:46:44.426Z,977.65
2022-10-22T04:47:44.394Z,977.63
2022-10-22T04:48:44.375Z,977.63
2022-10-22T04:49:44.383Z,977.59
2022-10-22T04:50:44.354Z,977.61
2022-10-22T04:51:44.372Z,977.61
2022-10-22T04:52:44.334Z,977.68
2022-10-22T04:53:44.320Z,977.68
2022-10-22T04:54:44.318Z,977.71
2022-10-22T04:55:44.302Z,977.68
2022-10-22T04:56:44.305Z,977.68
2022-10-22T04:57:44.284Z,977.63
2022-10-22T04:58:44.275Z,977.66
2022-10-22T04:59:44.267Z,977.65
2022-10-22T05:00:44.292Z,977.65
2022-10-22T05:01:44.258Z,977.66
2022-10-22T05:02:44.231Z,977.62
2022-10-22T05:03:44.230Z,977.59
2022-10-22T05:04:44.212Z,977.60
2022-10-22T05:05:44.202Z,977.57
2022-10-22T05:06:44.206Z,977.52
2022-10-22T05:07:44.417Z,977.57
2022-10-22T05:08:44.259Z,977.51
2022-10-22T05:09:44.157Z,977.53
2022-10-22T05:10:44.147Z,977.56
2022-10-22T05:11:44.149Z,977.53
2022-10-22T05:12:44.125Z,977.57
2022-10-22T05:13:44.117Z,977.65
2022-10-22T05:15:16.020Z,977.61
2022-10-22T05:15:44.101Z,977.69
2022-10-22T05:16:44.096Z,977.66
2022-10-22T05:17:44.077Z,977.68
2022-10-22T05:18:44.067Z,977.66
2022-10-22T05:19:44.119Z,977.65
2022-10-22T05:20:44.052Z,977.67
2022-10-22T05:21:44.053Z,977.70
2022-10-22T05:22:44.030Z,977.65
2022-10-22T05:23:44.017Z,977.64
2022-10-22T05:24:44.005Z,977.68
2022-10-22T05:25:43.988Z,977.71
2022-10-22T05:26:43.992Z,977.67
2022-10-22T05:27:44.152Z,977.73
2022-10-22T05:28:43.965Z,977.63
2022-10-22T05:29:43.953Z,977.73
2022-10-22T05:30:43.946Z,977.68
2022-10-22T05:31:43.945Z,977.75
2022-10-22T05:32:43.921Z,977.71
2022-10-22T05:33:43.927Z,977.73
2022-10-22T05:34:43.902Z,977.73
2022-10-22T05:35:46.746Z,977.74
2022-10-22T05:36:44.893Z,977.74
2022-10-22T05:37:44.091Z,977.79
2022-10-22T05:38:43.863Z,977.78
2022-10-22T05:39:43.852Z,977.70
2022-10-22T05:40:43.845Z,977.75
2022-10-22T05:41:43.951Z,977.80
2022-10-22T05:42:43.817Z,977.74
2022-10-22T05:43:43.807Z,977.81
2022-10-22T05:44:43.799Z,977.83
2022-10-22T05:45:43.786Z,977.80
2022-10-22T05:46:43.786Z,977.80
2022-10-22T05:47:43.761Z,977.84
2022-10-22T05:48:43.777Z,977.81
2022-10-22T05:49:43.744Z,977.81
2022-10-22T05:50:43.738Z,977.82
2022-10-22T05:51:43.737Z,977.80
2022-10-22T05:52:43.805Z,977.85
2022-10-22T05:53:43.704Z,977.91
2022-10-22T05:54:43.716Z,977.92
2022-10-22T05:55:43.679Z,977.91
2022-10-22T05:56:43.680Z,977.92
2022-10-22T05:57:43.660Z,978.06
2022-10-22T05:58:43.653Z,978.03
2022-10-22T05:59:43.639Z,978.06
2022-10-22T06:00:43.634Z,978.12
2022-10-22T06:01:43.634Z,978.06
2022-10-22T06:02:43.617Z,978.04
2022-10-22T06:03:43.600Z,978.05
2022-10-22T06:04:43.598Z,978.12
2022-10-22T06:05:43.580Z,978.13
2022-10-22T06:06:43.584Z,978.15
2022-10-22T06:07:43.564Z,978.13
2022-10-22T06:08:43.579Z,978.13
2022-10-22T06:09:43.543Z,978.15
2022-10-22T06:10:43.557Z,978.16
2022-10-22T06:11:43.538Z,978.12
2022-10-22T06:12:43.566Z,978.17
2022-10-22T06:13:43.498Z,978.17
2022-10-22T06:14:43.490Z,978.18
2022-10-22T06:15:43.479Z,978.21
2022-10-22T06:16:43.486Z,978.25
2022-10-22T06:17:43.459Z,978.26
2022-10-22T06:18:43.449Z,978.28
2022-10-22T06:19:43.439Z,978.32
2022-10-22T06:20:43.432Z,978.25
2022-10-22T06:21:43.428Z,978.35
2022-10-22T06:22:43.664Z,978.35
2022-10-22T06:23:43.399Z,978.38
2022-10-22T06:24:45.184Z,978.39
2022-10-22T06:25:43.382Z,978.41
2022-10-22T06:26:43.378Z,978.49
2022-10-22T06:27:43.355Z,978.49
2022-10-22T06:28:43.345Z,978.47
2022-10-22T06:29:43.338Z,978.53
2022-10-22T06:30:45.869Z,978.53
2022-10-22T06:31:43.323Z,978.51
2022-10-22T06:32:43.373Z,978.61
2022-10-22T06:33:43.294Z,978.58
2022-10-22T06:34:43.283Z,978.63
2022-10-22T06:35:43.271Z,978.70
2022-10-22T06:36:43.280Z,978.69
2022-10-22T06:37:43.482Z,978.67
2022-10-22T06:38:43.234Z,978.74
2022-10-22T06:39:43.230Z,978.78
2022-10-22T06:40:43.216Z,978.73
2022-10-22T06:41:43.218Z,978.78
2022-10-22T06:42:43.394Z,978.78
2022-10-22T06:43:43.186Z,978.82
2022-10-22T06:44:43.172Z,978.85
2022-10-22T06:45:43.164Z,978.84
2022-10-22T06:46:43.637Z,978.86
2022-10-22T06:47:44.295Z,978.81
2022-10-22T06:48:43.131Z,978.95
2022-10-22T06:49:43.123Z,979.00
2022-10-22T06:50:43.129Z,978.90
2022-10-22T06:51:43.120Z,978.89
2022-10-22T06:52:43.118Z,978.94
2022-10-22T06:53:43.088Z,978.80
2022-10-22T06:54:43.071Z,979.00
2022-10-22T06:55:43.068Z,978.96
2022-10-22T06:56:43.064Z,978.96
2022-10-22T06:57:43.495Z,978.99
2022-10-22T06:58:43.033Z,979.00
2022-10-22T06:59:43.021Z,978.99
2022-10-22T07:00:43.012Z,978.99
2022-10-22T07:01:43.059Z,978.93
2022-10-22T07:02:43.463Z,978.94
2022-10-22T07:03:42.987Z,978.96
2022-10-22T07:04:42.971Z,979.01
2022-10-22T07:05:42.963Z,979.05
2022-10-22T07:06:42.961Z,979.04
2022-10-22T07:07:42.940Z,979.02
2022-10-22T07:08:42.969Z,978.98
2022-10-22T07:09:42.914Z,979.00
2022-10-22T07:10:42.901Z,979.02
2022-10-22T07:11:42.904Z,979.06
2022-10-22T07:12:43.478Z,979.02
2022-10-22T07:13:42.875Z,979.11
2022-10-22T07:14:42.864Z,979.11
2022-10-22T07:15:42.856Z,979.15
2022-10-22T07:16:42.853Z,979.15
2022-10-22T07:17:42.835Z,979.14
2022-10-22T07:18:42.815Z,979.21
2022-10-22T07:19:42.809Z,979.15
2022-10-22T07:20:42.799Z,979.13
2022-10-22T07:21:42.802Z,979.16
2022-10-22T07:22:43.198Z,979.23
2022-10-22T07:23:42.767Z,979.22
2022-10-22T07:24:42.761Z,979.25
2022-10-22T07:25:42.742Z,979.20
2022-10-22T07:26:42.748Z,979.24
2022-10-22T07:27:42.955Z,979.30
2022-10-22T07:28:42.719Z,979.31
2022-10-22T07:29:42.703Z,979.38
2022-10-22T07:30:42.698Z,979.37
2022-10-22T07:31:42.694Z,979.36
2022-10-22T07:32:42.673Z,979.36
2022-10-22T07:33:42.682Z,979.35
2022-10-22T07:34:43.920Z,979.39
2022-10-22T07:35:42.647Z,979.36
2022-10-22T07:36:42.638Z,979.33
2022-10-22T07:37:42.889Z,979.38
2022-10-22T07:38:42.609Z,979.42
2022-10-22T07:39:42.608Z,979.44
2022-10-22T07:40:42.590Z,979.38
2022-10-22T07:41:42.596Z,979.44
2022-10-22T07:42:42.578Z,979.46
2022-10-22T07:43:42.563Z,979.46
2022-10-22T07:44:42.551Z,979.44
2022-10-22T07:45:42.542Z,979.37
2022-10-22T07:46:44.415Z,979.38
2022-10-22T07:47:43.832Z,979.42
2022-10-22T07:48:42.511Z,979.38
2022-10-22T07:49:42.507Z,979.42
2022-10-22T07:51:42.578Z,979.48
2022-10-22T07:52:42.856Z,979.44
2022-10-22T07:53:42.463Z,979.39
2022-10-22T07:54:42.450Z,979.47
2022-10-22T07:55:42.440Z,979.46
2022-10-22T07:56:42.443Z,979.49
2022-10-22T07:57:42.422Z,979.42
2022-10-22T07:58:42.416Z,979.49
2022-10-22T07:59:42.398Z,979.50
2022-10-22T08:00:42.391Z,979.46
2022-10-22T08:01:42.458Z,979.51
2022-10-22T08:02:42.796Z,979.53
2022-10-22T08:03:42.359Z,979.60
2022-10-22T08:04:42.346Z,979.63
2022-10-22T08:05:42.334Z,979.56
2022-10-22T08:06:45.748Z,979.65
2022-10-22T08:07:44.320Z,979.62
2022-10-22T08:08:42.340Z,979.64
2022-10-22T08:09:42.292Z,979.68
2022-10-22T08:10:42.286Z,979.64
2022-10-22T08:11:42.281Z,979.68
2022-10-22T08:12:42.505Z,979.71
2022-10-22T08:13:45.429Z,979.65
2022-10-22T08:14:43.245Z,979.59
2022-10-22T08:15:42.262Z,979.62
2022-10-22T08:16:42.237Z,979.69
2022-10-22T08:17:42.559Z,979.69
2022-10-22T08:18:42.203Z,979.65
2022-10-22T08:19:42.192Z,979.65
2022-10-22T08:20:42.180Z,979.70
2022-10-22T08:21:42.179Z,979.67
2022-10-22T08:22:42.156Z,979.71
2022-10-22T08:23:42.140Z,979.73
2022-10-22T08:24:43.138Z,979.77
2022-10-22T08:25:42.128Z,979.78
2022-10-22T08:26:42.131Z,979.80
2022-10-22T08:27:42.619Z,979.77
2022-10-22T08:28:42.098Z,979.86
2022-10-22T08:29:42.084Z,979.85
2022-10-22T08:30:42.080Z,979.82
2022-10-22T08:31:42.078Z,979.81
2022-10-22T08:32:42.067Z,979.84
2022-10-22T08:33:42.048Z,979.88
2022-10-22T08:34:42.037Z,979.88
2022-10-22T08:35:42.026Z,979.87
2022-10-22T08:36:42.027Z,979.94
2022-10-22T08:37:42.326Z,980.01
2022-10-22T08:38:41.994Z,979.95
2022-10-22T08:39:41.989Z,979.93
2022-10-22T08:40:41.999Z,979.93
2022-10-22T08:41:41.974Z,979.93
2022-10-22T08:42:42.215Z,979.91
2022-10-22T08:43:41.943Z,979.96
2022-10-22T08:44:41.932Z,979.97
2022-10-22T08:45:41.924Z,979.96
2022-10-22T08:46:41.943Z,979.99
2022-10-22T08:47:41.904Z,979.96
2022-10-22T08:48:41.896Z,979.91
2022-10-22T08:49:42.242Z,980.03
2022-10-22T08:50:41.872Z,979.93
2022-10-22T08:51:41.876Z,979.97
2022-10-22T08:52:42.364Z,979.99
2022-10-22T08:53:41.844Z,980.01
2022-10-22T08:54:41.832Z,980.01
2022-10-22T08:55:41.823Z,980.01
2022-10-22T08:56:41.827Z,979.96
2022-10-22T08:57:41.801Z,979.93
2022-10-22T08:58:41.793Z,980.02
2022-10-22T08:59:41.784Z,979.98
2022-10-22T09:00:41.779Z,979.98
2022-10-22T09:01:41.772Z,980.00
2022-10-22T09:02:42.233Z,980.04
2022-10-22T09:03:41.744Z,980.08
2022-10-22T09:04:41.731Z,980.03
2022-10-22T09:05:41.789Z,980.06
2022-10-22T09:06:41.719Z,980.07
2022-10-22T09:07:42.014Z,980.08
2022-10-22T09:08:41.737Z,980.10
2022-10-22T09:09:41.674Z,980.11
2022-10-22T09:10:41.672Z,980.08
2022-10-22T09:11:41.673Z,980.07
2022-10-22T09:12:41.654Z,980.02
2022-10-22T09:13:41.645Z,980.05
2022-10-22T09:14:41.635Z,980.12
2022-10-22T09:15:43.769Z,980.08
2022-10-22T09:16:42.622Z,980.08
2022-10-22T09:17:41.876Z,980.09
2022-10-22T09:18:41.595Z,980.04
2022-10-22T09:19:41.584Z,980.09
2022-10-22T09:20:41.579Z,980.02
2022-10-22T09:21:41.574Z,980.04
2022-10-22T09:22:41.552Z,980.03
2022-10-22T09:23:41.541Z,980.06
2022-10-22T09:24:41.533Z,980.09
2022-10-22T09:25:41.520Z,980.06
2022-10-22T09:26:41.522Z,980.05
2022-10-22T09:27:41.852Z,980.07
2022-10-22T09:28:41.494Z,980.04
2022-10-22T09:29:41.482Z,980.08
2022-10-22T09:30:41.473Z,980.01
2022-10-22T09:31:41.477Z,980.08
2022-10-22T09:32:41.767Z,980.07
2022-10-22T09:33:41.465Z,980.00
2022-10-22T09:34:41.430Z,980.06
2022-10-22T09:35:41.421Z,979.93
2022-10-22T09:36:41.417Z,980.09
2022-10-22T09:37:41.395Z,980.09
2022-10-22T09:38:41.384Z,980.09
2022-10-22T09:39:41.377Z,980.07
2022-10-22T09:40:41.365Z,980.07
2022-10-22T09:41:41.356Z,980.09
2022-10-22T09:42:41.632Z,980.08
2022-10-22T09:43:41.339Z,980.11
2022-10-22T09:44:44.911Z,980.11
2022-10-22T09:45:43.300Z,980.11
2022-10-22T09:46:42.304Z,980.12
2022-10-22T09:47:43.613Z,980.18
2022-10-22T09:48:43.287Z,980.17
2022-10-22T09:49:41.272Z,980.13
2022-10-22T09:50:41.264Z,980.14
2022-10-22T09:51:41.252Z,980.16
2022-10-22T09:52:41.395Z,980.12
2022-10-22T09:53:41.225Z,980.14
2022-10-22T09:54:41.226Z,980.16
2022-10-22T09:55:41.214Z,980.20
2022-10-22T09:56:41.203Z,980.21
2022-10-22T09:57:43.690Z,980.22
2022-10-22T09:58:41.180Z,980.14
2022-10-22T09:59:41.197Z,980.26
2022-10-22T10:00:41.160Z,980.26
2022-10-22T10:01:41.159Z,980.19
2022-10-22T10:02:41.139Z,980.21
2022-10-22T10:03:41.128Z,980.14
2022-10-22T10:04:41.126Z,980.24
2022-10-22T10:05:41.111Z,980.23
2022-10-22T10:06:41.120Z,980.28
2022-10-22T10:07:41.334Z,980.27
2022-10-22T10:08:41.115Z,980.32
2022-10-22T10:09:41.076Z,980.31
2022-10-22T10:10:41.067Z,980.30
2022-10-22T10:11:41.070Z,980.38
2022-10-22T10:12:41.085Z,980.33
2022-10-22T10:13:41.045Z,980.42
2022-10-22T10:14:41.026Z,980.35
2022-10-22T10:15:41.012Z,980.40
2022-10-22T10:16:41.016Z,980.36
2022-10-22T10:17:41.325Z,980.36
2022-10-22T10:18:40.986Z,980.40
2022-10-22T10:19:40.980Z,980.32
2022-10-22T10:20:40.969Z,980.41
2022-10-22T10:21:40.972Z,980.33
2022-10-22T10:22:41.099Z,980.32
2022-10-22T10:23:40.936Z,980.31
2022-10-22T10:24:40.925Z,980.27
2022-10-22T10:25:40.916Z,980.36
2022-10-22T10:26:40.908Z,980.30
2022-10-22T10:27:40.910Z,980.33
2022-10-22T10:28:40.888Z,980.20
2022-10-22T10:29:40.880Z,980.31
2022-10-22T10:30:40.994Z,980.24
2022-10-22T10:31:40.872Z,980.26
2022-10-22T10:32:41.049Z,980.24
2022-10-22T10:33:40.839Z,980.28
2022-10-22T10:34:40.830Z,980.30
2022-10-22T10:35:40.818Z,980.29
2022-10-22T10:36:40.807Z,980.28
2022-10-22T10:37:40.815Z,980.32
2022-10-22T10:38:40.793Z,980.30
2022-10-22T10:39:40.782Z,980.29
2022-10-22T10:40:40.770Z,980.24
2022-10-22T10:41:40.759Z,980.25
2022-10-22T10:42:40.974Z,980.28
2022-10-22T10:43:40.735Z,980.28
2022-10-22T10:44:40.731Z,980.26
2022-10-22T10:45:40.721Z,980.25
2022-10-22T10:46:40.709Z,980.23
2022-10-22T10:47:40.922Z,980.28
2022-10-22T10:48:40.690Z,980.31
2022-10-22T10:49:40.679Z,980.27
2022-10-22T10:50:40.677Z,980.28
2022-10-22T10:51:40.673Z,980.25
2022-10-22T10:52:40.653Z,980.27
2022-10-22T10:53:40.640Z,980.30
2022-10-22T10:54:40.652Z,980.31
2022-10-22T10:55:40.624Z,980.30
2022-10-22T10:56:40.619Z,980.28
2022-10-22T10:57:40.957Z,980.33
2022-10-22T10:58:40.594Z,980.29
2022-10-22T10:59:40.586Z,980.25
2022-10-22T11:00:40.575Z,980.28
2022-10-22T11:01:40.639Z,980.26
2022-10-22T11:02:41.552Z,980.27
2022-10-22T11:03:40.548Z,980.24
2022-10-22T11:04:40.532Z,980.24
2022-10-22T11:05:40.533Z,980.23
2022-10-22T11:06:40.512Z,980.26
2022-10-22T11:07:40.506Z,980.28
2022-10-22T11:08:40.535Z,980.26
2022-10-22T11:09:40.481Z,980.28
2022-10-22T11:10:40.482Z,980.31
2022-10-22T11:11:40.465Z,980.32
2022-10-22T11:12:40.767Z,980.36
2022-10-22T11:13:40.445Z,980.28
2022-10-22T11:14:40.456Z,980.23
2022-10-22T11:16:12.342Z,980.30
2022-10-22T11:16:40.414Z,980.38
2022-10-22T11:17:40.402Z,980.39
2022-10-22T11:18:40.395Z,980.43
2022-10-22T11:19:50.649Z,980.43
2022-10-22T11:20:42.400Z,980.46
2022-10-22T11:21:40.371Z,980.37
2022-10-22T11:22:50.498Z,980.41
2022-10-22T11:23:42.349Z,980.43
2022-10-22T11:24:40.340Z,980.42
2022-10-22T11:25:40.351Z,980.43
2022-10-22T11:26:40.322Z,980.41
2022-10-22T11:27:40.651Z,980.39
2022-10-22T11:28:40.303Z,980.36
2022-10-22T11:29:40.292Z,980.31
2022-10-22T11:30:40.281Z,980.34
2022-10-22T11:31:40.280Z,980.29
2022-10-22T11:32:40.644Z,980.20
2022-10-22T11:33:40.283Z,980.21
2022-10-22T11:34:40.245Z,980.29
2022-10-22T11:35:40.248Z,980.23
2022-10-22T11:36:40.223Z,980.27
2022-10-22T11:37:40.518Z,980.24
2022-10-22T11:38:40.207Z,980.25
2022-10-22T11:39:40.192Z,980.28
2022-10-22T11:40:40.194Z,980.26
2022-10-22T11:41:40.169Z,980.28
2022-10-22T11:42:40.160Z,980.24
2022-10-22T11:43:40.149Z,980.21
2022-10-22T11:44:40.185Z,980.31
2022-10-22T11:45:40.141Z,980.24
2022-10-22T11:46:40.122Z,980.28
2022-10-22T11:47:40.498Z,980.21
2022-10-22T11:48:40.104Z,980.25
2022-10-22T11:49:40.091Z,980.30
2022-10-22T11:50:40.091Z,980.21
2022-10-22T11:51:40.070Z,980.23
2022-10-22T11:52:40.058Z,980.24
2022-10-22T11:53:40.049Z,980.21
2022-10-22T11:54:40.041Z,980.21
2022-10-22T11:55:40.042Z,980.19
2022-10-22T11:56:40.023Z,980.25
2022-10-22T11:57:40.244Z,980.25
2022-10-22T11:58:40.006Z,980.18
2022-10-22T11:59:39.997Z,980.19
2022-10-22T12:00:39.995Z,980.13
2022-10-22T12:01:39.979Z,980.14
2022-10-22T12:02:40.221Z,980.13
2022-10-22T12:03:39.957Z,980.12
2022-10-22T12:04:40.031Z,980.19
2022-10-22T12:05:39.948Z,980.17
2022-10-22T12:06:39.927Z,980.18
2022-10-22T12:07:39.918Z,980.15
2022-10-22T12:08:39.942Z,980.18
2022-10-22T12:09:39.988Z,980.11
2022-10-22T12:10:39.899Z,980.12
2022-10-22T12:11:39.877Z,980.06
2022-10-22T12:12:40.234Z,980.06
2022-10-22T12:13:39.857Z,980.02
2022-10-22T12:14:39.856Z,980.07
2022-10-22T12:15:39.847Z,980.04
2022-10-22T12:16:56.573Z,980.02
2022-10-22T12:17:41.822Z,980.03
2022-10-22T12:18:39.813Z,980.06
2022-10-22T12:19:39.803Z,980.06
2022-10-22T12:20:39.800Z,980.07
2022-10-22T12:21:39.781Z,980.10
2022-10-22T12:22:40.072Z,980.05
2022-10-22T12:23:39.764Z,980.12
2022-10-22T12:24:39.756Z,980.09
2022-10-22T12:25:39.766Z,980.07
2022-10-22T12:26:39.743Z,980.04
2022-10-22T12:27:40.108Z,980.10
2022-10-22T12:28:39.723Z,980.11
2022-10-22T12:29:39.707Z,980.14
2022-10-22T12:30:39.718Z,980.12
2022-10-22T12:31:39.691Z,980.11
2022-10-22T12:32:39.690Z,980.09